createdAt,value
2019-05-30T00:02:16.207Z,21.63
2019-05-30T00:04:45.085Z,15.13
2019-05-30T00:07:13.700Z,12.50
2019-05-30T00:09:42.309Z,18.50
2019-05-30T00:12:12.067Z,13.33
2019-05-30T00:14:41.060Z,19.40
2019-05-30T00:17:09.565Z,18.40
2019-05-30T00:19:38.027Z,15.73
2019-05-30T00:22:06.809Z,17.23
2019-05-30T00:24:35.802Z,18.80
2019-05-30T00:27:06.635Z,12.87
2019-05-30T00:29:35.579Z,19.67
2019-05-30T00:32:04.934Z,18.27
2019-05-30T00:34:34.237Z,15.60
2019-05-30T00:37:04.092Z,14.33
2019-05-30T00:39:32.848Z,15.37
2019-05-30T00:42:02.085Z,17.77
2019-05-30T00:44:30.855Z,23.17
2019-05-30T00:47:00.599Z,16.27
2019-05-30T00:49:28.985Z,21.47
2019-05-30T00:51:58.356Z,16.37
2019-05-30T00:54:26.801Z,23.50
2019-05-30T00:56:56.555Z,24.10
2019-05-30T00:59:24.986Z,19.07
2019-05-30T01:01:53.339Z,26.63
2019-05-30T01:04:22.285Z,18.57
2019-05-30T01:06:50.577Z,20.17
2019-05-30T01:09:19.225Z,17.23
2019-05-30T01:11:47.941Z,17.17
2019-05-30T01:14:16.537Z,14.67
2019-05-30T01:16:45.580Z,18.37
2019-05-30T01:19:14.576Z,11.67
2019-05-30T01:21:43.205Z,16.47
2019-05-30T01:24:12.255Z,19.97
2019-05-30T01:26:41.553Z,13.13
2019-05-30T01:29:10.116Z,16.07
2019-05-30T01:31:38.925Z,24.40
2019-05-30T01:34:07.927Z,16.50
2019-05-30T01:36:36.524Z,16.90
2019-05-30T01:39:06.062Z,20.53
2019-05-30T01:41:34.903Z,16.23
2019-05-30T01:44:03.997Z,13.93
2019-05-30T01:46:32.713Z,22.33
2019-05-30T01:49:02.321Z,15.60
2019-05-30T01:51:30.871Z,17.87
2019-05-30T01:54:00.419Z,18.70
2019-05-30T01:56:29.473Z,19.83
2019-05-30T01:58:58.629Z,21.47
2019-05-30T02:01:27.462Z,17.90
2019-05-30T02:03:56.151Z,22.53
2019-05-30T02:06:25.712Z,25.07
2019-05-30T02:08:54.366Z,23.30
2019-05-30T02:11:22.972Z,19.73
2019-05-30T02:13:51.843Z,20.80
2019-05-30T02:16:20.645Z,17.40
2019-05-30T02:18:49.133Z,20.53
2019-05-30T02:21:17.870Z,22.80
2019-05-30T02:23:46.553Z,18.73
2019-05-30T02:26:15.547Z,31.37
2019-05-30T02:28:44.539Z,22.20
2019-05-30T02:31:13.159Z,27.33
2019-05-30T02:33:41.503Z,25.13
2019-05-30T02:36:12.314Z,23.13
2019-05-30T02:38:40.331Z,23.10
2019-05-30T02:41:10.072Z,29.33
2019-05-30T02:43:40.605Z,24.30
2019-05-30T02:46:10.607Z,24.53
2019-05-30T02:48:57.343Z,30.00
2019-05-30T02:51:12.481Z,31.10
2019-05-30T02:53:40.605Z,27.00
2019-05-30T02:56:10.222Z,27.27
2019-05-30T02:58:39.156Z,31.23
2019-05-30T03:01:09.215Z,29.03
2019-05-30T03:03:38.438Z,25.43
2019-05-30T03:06:09.259Z,28.10
2019-05-30T03:08:37.678Z,32.60
2019-05-30T03:11:07.916Z,27.03
2019-05-30T03:13:37.246Z,24.20
2019-05-30T03:16:07.411Z,34.03
2019-05-30T03:18:36.403Z,27.23
2019-05-30T03:21:05.815Z,21.50
2019-05-30T03:23:35.589Z,34.23
2019-05-30T03:26:04.898Z,30.83
2019-05-30T03:28:34.478Z,36.13
2019-05-30T03:31:05.933Z,29.17
2019-05-30T03:33:40.979Z,34.63
2019-05-30T03:36:10.948Z,29.53
2019-05-30T03:38:35.780Z,34.63
2019-05-30T03:41:05.155Z,30.70
2019-05-30T03:43:34.897Z,28.97
2019-05-30T03:46:04.043Z,19.87
2019-05-30T03:48:34.345Z,26.80
2019-05-30T03:51:06.102Z,19.53
2019-05-30T03:53:35.812Z,20.60
2019-05-30T03:56:09.355Z,21.00
2019-05-30T03:58:54.356Z,21.97
2019-05-30T04:01:25.922Z,20.33
2019-05-30T04:03:59.862Z,17.47
2019-05-30T04:06:30.541Z,17.60
2019-05-30T04:09:02.506Z,17.60
2019-05-30T04:11:40.070Z,14.03
2019-05-30T04:14:11.177Z,24.37
2019-05-30T04:16:40.637Z,20.67
2019-05-30T04:19:09.945Z,20.63
2019-05-30T04:21:38.601Z,23.17
2019-05-30T04:24:07.367Z,18.10
2019-05-30T04:26:36.344Z,19.23
2019-05-30T04:29:05.310Z,17.73
2019-05-30T04:31:34.332Z,15.90
2019-05-30T04:34:02.997Z,14.23
2019-05-30T04:36:31.455Z,16.97
2019-05-30T04:39:00.258Z,13.63
2019-05-30T04:41:29.080Z,15.27
2019-05-30T04:43:57.664Z,15.40
2019-05-30T04:46:26.519Z,16.67
2019-05-30T04:48:55.025Z,22.90
2019-05-30T04:51:24.002Z,22.97
2019-05-30T04:53:53.090Z,16.87
2019-05-30T04:56:22.145Z,18.90
2019-05-30T04:58:50.778Z,17.33
2019-05-30T05:01:20.276Z,16.23
2019-05-30T05:03:49.850Z,16.13
2019-05-30T05:06:19.882Z,20.50
2019-05-30T05:08:48.615Z,19.07
2019-05-30T05:11:20.816Z,13.50
2019-05-30T05:13:47.502Z,26.50
2019-05-30T05:16:26.046Z,13.07
2019-05-30T05:18:46.123Z,14.77
2019-05-30T05:21:14.842Z,15.80
2019-05-30T05:23:43.392Z,24.13
2019-05-30T05:26:11.841Z,20.43
2019-05-30T05:28:40.863Z,19.33
2019-05-30T05:31:09.500Z,15.57
2019-05-30T05:33:38.232Z,14.50
2019-05-30T05:36:06.784Z,13.87
2019-05-30T05:38:35.430Z,13.33
2019-05-30T05:41:04.137Z,19.17
2019-05-30T05:43:33.017Z,8.87
2019-05-30T05:46:01.561Z,9.17
2019-05-30T05:48:30.032Z,17.93
2019-05-30T05:50:58.577Z,13.90
2019-05-30T05:53:27.020Z,17.00
2019-05-30T05:55:55.374Z,13.47
2019-05-30T05:58:24.402Z,19.47
2019-05-30T06:00:54.595Z,69.67
2019-05-30T06:03:24.149Z,32.30
2019-05-30T06:05:53.642Z,19.33
2019-05-30T06:08:23.751Z,13.43
2019-05-30T06:10:52.777Z,13.53
2019-05-30T06:13:22.904Z,12.80
2019-05-30T06:15:52.059Z,10.27
2019-05-30T06:18:22.132Z,12.63
2019-05-30T06:20:50.830Z,11.13
2019-05-30T06:23:19.607Z,11.90
2019-05-30T06:25:48.318Z,16.73
2019-05-30T06:28:17.869Z,16.33
2019-05-30T06:30:46.571Z,12.13
2019-05-30T06:33:15.129Z,13.50
2019-05-30T06:35:43.984Z,16.03
2019-05-30T06:38:12.673Z,10.70
2019-05-30T06:40:41.575Z,11.07
2019-05-30T06:43:09.998Z,13.70
2019-05-30T06:45:38.340Z,13.53
2019-05-30T06:48:06.951Z,12.63
2019-05-30T06:50:35.794Z,13.55
2019-05-30T06:53:04.547Z,13.30
2019-05-30T06:55:33.066Z,10.53
2019-05-30T06:58:01.853Z,11.77
2019-05-30T07:00:32.832Z,9.97
2019-05-30T07:03:01.842Z,13.60
2019-05-30T07:05:32.086Z,12.03
2019-05-30T07:08:00.849Z,9.90
2019-05-30T07:10:29.469Z,24.97
2019-05-30T07:12:58.272Z,9.73
2019-05-30T07:15:27.230Z,14.27
2019-05-30T07:17:56.079Z,13.90
2019-05-30T07:20:25.487Z,9.30
2019-05-30T07:22:54.178Z,9.45
2019-05-30T07:25:23.751Z,11.35
2019-05-30T07:27:52.434Z,11.33
2019-05-30T07:30:27.923Z,11.38
2019-05-30T07:32:58.322Z,8.43
2019-05-30T07:35:27.902Z,11.20
2019-05-30T07:37:57.774Z,8.70
2019-05-30T07:40:28.581Z,13.60
2019-05-30T07:42:58.909Z,11.95
2019-05-30T07:45:29.066Z,13.33
2019-05-30T07:47:59.114Z,11.65
2019-05-30T07:50:28.939Z,13.53
2019-05-30T07:52:58.924Z,16.20
2019-05-30T07:55:29.036Z,21.03
2019-05-30T07:57:59.249Z,26.83
2019-05-30T08:00:29.407Z,18.30
2019-05-30T08:02:59.819Z,15.23
2019-05-30T08:05:30.599Z,13.33
2019-05-30T08:08:00.669Z,14.27
2019-05-30T08:10:31.945Z,15.50
2019-05-30T08:13:02.146Z,14.30
2019-05-30T08:15:33.386Z,11.73
2019-05-30T08:18:10.682Z,13.53
2019-05-30T08:20:41.952Z,13.87
2019-05-30T08:23:15.072Z,15.30
2019-05-30T08:25:47.902Z,11.60
2019-05-30T08:28:19.570Z,14.67
2019-05-30T08:30:51.211Z,19.53
2019-05-30T08:33:22.618Z,16.40
2019-05-30T08:35:54.331Z,16.90
2019-05-30T08:38:25.406Z,13.83
2019-05-30T08:40:56.506Z,16.73
2019-05-30T08:43:27.173Z,17.77
2019-05-30T08:45:57.651Z,16.87
2019-05-30T08:48:29.799Z,12.60
2019-05-30T08:50:59.244Z,13.27
2019-05-30T08:53:28.606Z,12.63
2019-05-30T08:55:57.955Z,10.93
2019-05-30T08:58:27.269Z,10.37
2019-05-30T09:00:56.054Z,14.10
2019-05-30T09:03:24.770Z,15.07
2019-05-30T09:06:02.521Z,11.17
2019-05-30T09:08:23.713Z,9.77
2019-05-30T09:10:52.129Z,5.57
2019-05-30T09:13:20.907Z,7.20
2019-05-30T09:15:49.462Z,8.90
2019-05-30T09:18:38.579Z,8.20
2019-05-30T09:21:07.696Z,9.60
2019-05-30T09:23:38.281Z,9.47
2019-05-30T09:26:06.760Z,6.37
2019-05-30T09:28:35.753Z,7.23
2019-05-30T09:31:04.748Z,12.30
2019-05-30T09:33:33.275Z,14.17
2019-05-30T09:36:12.797Z,14.47
2019-05-30T09:38:32.282Z,11.60
2019-05-30T09:41:00.789Z,11.57
2019-05-30T09:43:29.653Z,15.97
2019-05-30T09:45:57.947Z,12.60
2019-05-30T09:48:26.779Z,11.47
2019-05-30T09:50:55.608Z,11.40
2019-05-30T09:53:24.299Z,15.00
2019-05-30T09:55:53.122Z,9.70
2019-05-30T09:58:22.078Z,10.67
2019-05-30T10:00:52.173Z,14.07
2019-05-30T10:03:21.141Z,9.93
2019-05-30T10:05:50.559Z,10.07
2019-05-30T10:08:20.048Z,13.43
2019-05-30T10:10:49.562Z,10.17
2019-05-30T10:13:18.554Z,5.93
2019-05-30T10:15:48.478Z,11.20
2019-05-30T10:18:18.345Z,14.17
2019-05-30T10:20:49.420Z,13.00
2019-05-30T10:23:19.872Z,11.87
2019-05-30T10:25:51.130Z,8.27
2019-05-30T10:28:21.057Z,7.00
2019-05-30T10:30:55.877Z,12.60
2019-05-30T10:33:22.739Z,6.23
2019-05-30T10:35:53.506Z,6.33
2019-05-30T10:38:23.706Z,7.87
2019-05-30T10:40:54.049Z,13.77
2019-05-30T10:43:24.017Z,9.13
2019-05-30T10:45:54.146Z,8.43
2019-05-30T10:48:23.969Z,15.23
2019-05-30T10:50:54.460Z,9.73
2019-05-30T10:53:24.485Z,7.03
2019-05-30T10:55:54.820Z,8.67
2019-05-30T10:58:25.043Z,12.90
2019-05-30T11:00:55.788Z,8.17
2019-05-30T11:03:27.697Z,9.23
2019-05-30T11:06:34.568Z,7.83
2019-05-30T11:09:05.480Z,15.47
2019-05-30T11:11:35.556Z,9.07
2019-05-30T11:14:05.344Z,11.17
2019-05-30T11:16:36.130Z,8.47
2019-05-30T11:19:07.491Z,9.87
2019-05-30T11:21:38.027Z,11.00
2019-05-30T11:24:08.031Z,15.32
2019-05-30T11:26:38.196Z,8.00
2019-05-30T11:29:07.068Z,13.50
2019-05-30T11:31:35.863Z,12.60
2019-05-30T11:34:04.986Z,10.20
2019-05-30T11:36:35.219Z,12.43
2019-05-30T11:39:04.881Z,9.70
2019-05-30T11:41:33.700Z,11.67
2019-05-30T11:44:04.231Z,7.43
2019-05-30T11:46:32.669Z,6.70
2019-05-30T11:49:01.704Z,10.23
2019-05-30T11:51:30.509Z,12.33
2019-05-30T11:54:00.959Z,9.10
2019-05-30T11:56:29.890Z,10.70
2019-05-30T11:59:00.106Z,7.60
2019-05-30T12:01:29.175Z,10.90
2019-05-30T12:03:58.653Z,10.03
2019-05-30T12:06:27.736Z,13.40
2019-05-30T12:08:56.912Z,9.07
2019-05-30T12:11:26.780Z,10.55
2019-05-30T12:13:55.594Z,9.68
2019-05-30T12:16:26.413Z,9.68
2019-05-30T12:18:55.789Z,7.72
2019-05-30T12:21:25.158Z,8.60
2019-05-30T12:23:54.504Z,9.13
2019-05-30T12:26:23.763Z,11.40
2019-05-30T12:28:54.050Z,11.18
2019-05-30T12:31:26.429Z,11.30
2019-05-30T12:33:56.247Z,10.33
2019-05-30T12:36:25.743Z,7.00
2019-05-30T12:38:56.422Z,13.27
2019-05-30T12:41:25.488Z,10.97
2019-05-30T12:43:55.028Z,11.53
2019-05-30T12:46:23.853Z,8.28
2019-05-30T12:48:53.265Z,9.83
2019-05-30T12:51:21.896Z,12.77
2019-05-30T12:53:50.651Z,11.10
2019-05-30T12:56:19.221Z,13.60
2019-05-30T12:58:47.951Z,9.53
2019-05-30T13:01:16.537Z,12.83
2019-05-30T13:03:44.998Z,11.78
2019-05-30T13:06:13.266Z,11.70
2019-05-30T13:08:42.022Z,10.70
2019-05-30T13:11:10.698Z,14.07
2019-05-30T13:13:40.071Z,8.30
2019-05-30T13:16:09.139Z,13.43
2019-05-30T13:18:38.189Z,13.10
2019-05-30T13:21:07.047Z,15.00
2019-05-30T13:23:36.010Z,8.80
2019-05-30T13:26:05.805Z,7.97
2019-05-30T13:28:34.808Z,11.20
2019-05-30T13:31:04.508Z,14.00
2019-05-30T13:33:33.548Z,12.80
2019-05-30T13:36:03.119Z,16.07
2019-05-30T13:38:31.797Z,10.00
2019-05-30T13:41:01.415Z,12.90
2019-05-30T13:43:30.446Z,11.17
2019-05-30T13:46:00.185Z,12.47
2019-05-30T13:48:29.836Z,12.60
2019-05-30T13:50:58.959Z,10.50
2019-05-30T13:53:27.646Z,9.20
2019-05-30T13:55:57.194Z,12.80
2019-05-30T13:58:25.632Z,12.43
2019-05-30T14:00:54.265Z,9.55
2019-05-30T14:03:22.631Z,11.13
2019-05-30T14:05:53.625Z,12.63
2019-05-30T14:08:22.580Z,15.27
2019-05-30T14:10:51.180Z,11.80
2019-05-30T14:13:20.204Z,9.93
2019-05-30T14:15:49.234Z,11.00
2019-05-30T14:18:17.725Z,9.13
2019-05-30T14:20:46.514Z,12.65
2019-05-30T14:23:14.834Z,8.20
2019-05-30T14:25:43.439Z,10.20
2019-05-30T14:28:12.266Z,8.30
2019-05-30T14:30:40.963Z,4.93
2019-05-30T14:33:10.144Z,5.60
2019-05-30T14:35:39.145Z,4.67
2019-05-30T14:38:08.622Z,6.47
2019-05-30T14:40:37.254Z,6.50
2019-05-30T14:43:07.180Z,4.67
2019-05-30T14:45:35.840Z,5.93
2019-05-30T14:48:04.643Z,6.00
2019-05-30T14:50:33.717Z,5.10
2019-05-30T14:53:02.217Z,7.43
2019-05-30T14:55:30.930Z,6.90
2019-05-30T14:57:59.589Z,4.67
2019-05-30T15:00:28.348Z,4.83
2019-05-30T15:02:57.676Z,5.87
2019-05-30T15:05:26.470Z,7.37
2019-05-30T15:07:56.179Z,6.07
2019-05-30T15:10:25.364Z,5.07
2019-05-30T15:12:54.217Z,5.20
2019-05-30T15:15:26.239Z,3.93
2019-05-30T15:17:55.260Z,5.40
2019-05-30T15:20:24.252Z,6.03
2019-05-30T15:22:52.899Z,9.33
2019-05-30T15:25:21.933Z,6.20
2019-05-30T15:27:50.674Z,8.60
2019-05-30T15:30:19.251Z,4.83
2019-05-30T15:32:47.626Z,6.20
2019-05-30T15:35:19.201Z,4.50
2019-05-30T15:37:48.876Z,6.33
2019-05-30T15:40:21.066Z,7.13
2019-05-30T15:42:53.025Z,6.87
2019-05-30T15:45:20.045Z,7.03
2019-05-30T15:47:48.620Z,7.30
2019-05-30T15:50:18.777Z,6.60
2019-05-30T15:52:47.145Z,9.80
2019-05-30T15:55:15.808Z,14.23
2019-05-30T15:57:44.344Z,12.47
2019-05-30T16:00:14.025Z,7.77
2019-05-30T16:03:01.859Z,9.20
2019-05-30T16:05:30.274Z,9.83
2019-05-30T16:07:58.646Z,9.33
2019-05-30T16:10:27.153Z,7.03
2019-05-30T16:12:55.717Z,13.23
2019-05-30T16:15:24.273Z,9.30
2019-05-30T16:17:52.744Z,8.27
2019-05-30T16:20:22.039Z,7.67
2019-05-30T16:22:51.198Z,9.40
2019-05-30T16:25:20.190Z,8.33
2019-05-30T16:27:48.840Z,10.10
2019-05-30T16:30:19.714Z,9.27
2019-05-30T16:32:47.719Z,7.10
2019-05-30T16:35:16.262Z,11.30
2019-05-30T16:37:44.985Z,7.83
2019-05-30T16:40:14.474Z,11.20
2019-05-30T16:42:43.015Z,9.50
2019-05-30T16:45:11.599Z,9.53
2019-05-30T16:47:40.150Z,9.30
2019-05-30T16:50:09.295Z,8.37
2019-05-30T16:52:38.212Z,7.37
2019-05-30T16:55:09.316Z,9.10
2019-05-30T16:57:38.490Z,6.87
2019-05-30T17:00:08.042Z,10.17
2019-05-30T17:02:36.577Z,10.10
2019-05-30T17:05:05.617Z,8.60
2019-05-30T17:07:37.383Z,9.10
2019-05-30T17:10:21.400Z,4.90
2019-05-30T17:12:37.737Z,8.90
2019-05-30T17:15:07.790Z,25.03
2019-05-30T17:17:36.357Z,7.43
2019-05-30T17:20:05.516Z,8.07
2019-05-30T17:22:34.065Z,8.13
2019-05-30T17:25:02.688Z,7.23
2019-05-30T17:27:44.565Z,6.60
2019-05-30T17:30:19.678Z,4.77
2019-05-30T17:32:48.519Z,7.03
2019-05-30T17:35:17.990Z,11.03
2019-05-30T17:37:46.550Z,12.33
2019-05-30T17:40:16.089Z,8.33
2019-05-30T17:42:44.702Z,7.07
2019-05-30T17:45:13.170Z,9.83
2019-05-30T17:47:41.997Z,9.30
2019-05-30T17:50:11.351Z,11.87
2019-05-30T17:52:40.152Z,12.83
2019-05-30T17:55:08.979Z,12.90
2019-05-30T17:57:37.460Z,8.93
2019-05-30T18:00:07.820Z,8.10
2019-05-30T18:02:36.730Z,8.50
2019-05-30T18:05:06.750Z,9.50
2019-05-30T18:07:35.201Z,15.87
2019-05-30T18:10:04.990Z,9.97
2019-05-30T18:12:39.574Z,9.73
2019-05-30T18:15:09.964Z,10.13
2019-05-30T18:17:38.828Z,8.30
2019-05-30T18:20:08.374Z,8.80
2019-05-30T18:22:36.861Z,7.43
2019-05-30T18:25:06.018Z,7.93
2019-05-30T18:27:34.617Z,11.70
2019-05-30T18:30:03.258Z,7.70
2019-05-30T18:32:32.584Z,8.60
2019-05-30T18:35:01.502Z,7.00
2019-05-30T18:37:30.512Z,10.43
2019-05-30T18:39:59.306Z,5.67
2019-05-30T18:42:29.163Z,8.87
2019-05-30T18:44:57.749Z,12.27
2019-05-30T18:47:26.994Z,10.50
2019-05-30T18:49:55.523Z,11.00
2019-05-30T18:52:24.410Z,13.20
2019-05-30T18:54:53.539Z,8.93
2019-05-30T18:57:22.875Z,9.13
2019-05-30T18:59:51.492Z,11.07
2019-05-30T19:02:20.403Z,9.10
2019-05-30T19:04:49.071Z,9.70
2019-05-30T19:07:18.234Z,12.20
2019-05-30T19:09:46.770Z,10.50
2019-05-30T19:12:15.604Z,9.27
2019-05-30T19:14:44.450Z,8.53
2019-05-30T19:17:13.453Z,9.10
2019-05-30T19:19:42.657Z,8.10
2019-05-30T19:22:11.981Z,8.27
2019-05-30T19:24:40.882Z,9.37
2019-05-30T19:27:16.640Z,7.57
2019-05-30T19:29:48.646Z,9.77
2019-05-30T19:32:18.245Z,11.50
2019-05-30T19:34:48.935Z,9.83
2019-05-30T19:37:18.750Z,7.77
2019-05-30T19:39:49.154Z,11.60
2019-05-30T19:42:18.245Z,10.23
2019-05-30T19:44:47.588Z,10.80
2019-05-30T19:47:16.561Z,8.47
2019-05-30T19:49:45.973Z,11.10
2019-05-30T19:52:15.908Z,9.57
2019-05-30T19:54:45.513Z,10.87
2019-05-30T19:57:14.723Z,8.30
2019-05-30T19:59:44.527Z,9.37
2019-05-30T20:02:13.220Z,10.60
2019-05-30T20:04:45.093Z,9.83
2019-05-30T20:07:17.463Z,8.87
2019-05-30T20:10:00.577Z,11.03
2019-05-30T20:12:19.451Z,9.87
2019-05-30T20:14:47.979Z,10.67
2019-05-30T20:17:17.076Z,8.90
2019-05-30T20:19:45.722Z,10.37
2019-05-30T20:22:14.755Z,9.73
2019-05-30T20:24:43.648Z,12.07
2019-05-30T20:27:14.324Z,18.40
2019-05-30T20:29:46.294Z,8.70
2019-05-30T20:32:13.546Z,11.67
2019-05-30T20:34:43.123Z,6.77
2019-05-30T20:37:11.941Z,6.10
2019-05-30T20:39:40.823Z,8.40
2019-05-30T20:42:18.775Z,5.53
2019-05-30T20:44:40.953Z,5.80
2019-05-30T20:47:09.457Z,6.07
2019-05-30T20:49:39.086Z,4.43
2019-05-30T20:52:07.693Z,6.33
2019-05-30T20:54:37.256Z,5.27
2019-05-30T20:57:05.782Z,5.27
2019-05-30T20:59:34.716Z,5.43
2019-05-30T21:02:03.083Z,6.13
2019-05-30T21:04:31.774Z,5.40
2019-05-30T21:07:02.782Z,6.70
2019-05-30T21:09:32.223Z,5.87
2019-05-30T21:12:01.755Z,6.13
2019-05-30T21:14:31.836Z,7.23
2019-05-30T21:17:01.780Z,6.20
2019-05-30T21:19:30.507Z,5.90
2019-05-30T21:21:59.310Z,6.13
2019-05-30T21:24:28.049Z,5.37
2019-05-30T21:26:57.360Z,4.93
2019-05-30T21:29:25.777Z,5.40
2019-05-30T21:31:54.551Z,6.37
2019-05-30T21:34:23.477Z,4.57
2019-05-30T21:36:51.933Z,5.23
2019-05-30T21:39:20.537Z,7.17
2019-05-30T21:41:49.143Z,8.33
2019-05-30T21:44:18.069Z,5.70
2019-05-30T21:46:46.831Z,6.07
2019-05-30T21:49:15.312Z,4.53
2019-05-30T21:51:43.609Z,3.70
2019-05-30T21:54:11.990Z,3.90
2019-05-30T21:56:41.863Z,5.37
2019-05-30T21:59:10.711Z,4.57
2019-05-30T22:01:40.640Z,5.80
2019-05-30T22:04:09.678Z,6.00
2019-05-30T22:06:38.614Z,5.67
2019-05-30T22:09:10.350Z,6.37
2019-05-30T22:11:39.167Z,4.63
2019-05-30T22:14:07.826Z,5.57
2019-05-30T22:16:36.329Z,5.33
2019-05-30T22:19:05.321Z,5.87
2019-05-30T22:21:33.914Z,5.27
2019-05-30T22:24:03.366Z,7.50
2019-05-30T22:26:32.242Z,5.80
2019-05-30T22:29:01.022Z,6.47
2019-05-30T22:31:29.670Z,7.87
2019-05-30T22:33:58.074Z,5.63
2019-05-30T22:36:26.441Z,7.27
2019-05-30T22:38:54.787Z,5.63
2019-05-30T22:41:23.426Z,7.97
2019-05-30T22:43:52.885Z,5.70
2019-05-30T22:46:21.525Z,6.53
2019-05-30T22:48:50.524Z,7.30
2019-05-30T22:51:19.149Z,7.43
2019-05-30T22:53:48.620Z,7.08
2019-05-30T22:56:17.501Z,6.20
2019-05-30T22:58:47.747Z,9.43
2019-05-30T23:01:16.366Z,7.07
2019-05-30T23:03:45.101Z,10.07
2019-05-30T23:06:13.642Z,9.77
2019-05-30T23:08:42.103Z,13.40
2019-05-30T23:11:10.733Z,11.63
2019-05-30T23:13:40.763Z,9.50
2019-05-30T23:16:09.707Z,10.45
2019-05-30T23:18:38.334Z,13.97
2019-05-30T23:21:07.181Z,6.87
2019-05-30T23:23:35.737Z,4.80
2019-05-30T23:26:05.475Z,4.60
2019-05-30T23:28:33.799Z,3.97
2019-05-30T23:31:02.607Z,6.00
2019-05-30T23:33:31.485Z,5.43
2019-05-30T23:36:00.141Z,8.27
2019-05-30T23:38:28.837Z,8.97
2019-05-30T23:40:57.241Z,8.43
2019-05-30T23:43:25.867Z,8.90
2019-05-30T23:45:55.658Z,8.10
2019-05-30T23:48:24.451Z,6.73
2019-05-30T23:50:53.909Z,11.87
2019-05-30T23:53:22.864Z,7.83
2019-05-30T23:55:52.246Z,5.83
2019-05-30T23:58:20.882Z,10.20
